Bavaria

Jump to table bottom
Date/Time Temp deg F RH % Wind MPH Wind Max Wind Dir Snow 24hr inches Snow Depth inches
02/24/17 23:00 1.3 81 2 7 E - 110 0.2 -12.2
02/24/17 22:00 2.5 82 5 9 W - 291 0.2 -12.9
02/24/17 21:00 3.7 82 5 8 SW - 244 0.0 -12.8
02/24/17 20:00 3.3 83 6 8 W - 260 0.2 -12.7
02/24/17 19:00 3.1 82 5 8 W - 280 0.2 -12.9
02/24/17 18:00 5.0 82 6 9 NW - 293 0.1 -13.4
02/24/17 17:00 6.3 83 7 11 W - 272 0.0 -14.1
02/24/17 16:00 6.4 81 8 11 W - 282 -0.0 -14.4
02/24/17 15:00 7.7 79 8 11 W - 285 -0.2 68.8
02/24/17 14:00 9.6 75 7 11 W - 290 1.8 68.8
02/24/17 13:00 11.5 73 5 7 NW - 317 2.1 67.8
02/24/17 12:00 9.0 81 4 7 NW - 305 2.2 -14.9
02/24/17 11:00 14.6 82 3 6 SW - 232 2.2 -15.1
02/24/17 10:00 19.2 82 2 4 SE - 152 1.7 -13.9
02/24/17 09:00 11.6 85 0 3 SE - 141 2.1 -12.7
02/24/17 08:00 3.8 82 1 3 NE - 43 2.1 -12.4
02/24/17 07:00 2.9 83 0 3 NW - 317 2.2 -12.3
02/24/17 06:00 3.2 83 1 3 E - 70 2.1 -12.5
02/24/17 05:00 3.2 82 2 3 NW - 316 2.1 -12.8
02/24/17 04:00 3.9 83 0 2 N - 17 2.1 -13.1
02/24/17 03:00 4.5 83 1 4 NW - 320 2.1 -13.0
02/24/17 02:00 5.0 83 3 4 NE - 45 2.2 -13.0
02/24/17 01:00 5.0 83 4 6 N - 18 2.2 -13.1
02/24/17 00:00 5.3 84 5 7 N - 10 2.1 68.9
02/23/17 23:00 5.1 83 5 7 NE - 41 2.2 69.1
02/23/17 22:00 5.2 84 5 7 NE - 56 2.2 69.0
02/23/17 21:00 5.9 84 5 8 NE - 61 2.1 -13.6
02/23/17 20:00 5.9 84 6 10 NE - 58 1.8 -13.7
02/23/17 19:00 6.5 85 9 13 E - 96 -0.2 -13.8
02/23/17 18:00 7.0 85 8 14 E - 97 0.6 -14.0
02/23/17 17:00 8.4 83 8 12 E - 73 0.1 -14.3
02/23/17 16:00 8.7 82 8 12 NE - 45 0.0 -14.4
02/23/17 15:00 8.8 82 8 14 N - 16 -0.0 -14.6
02/23/17 14:00 8.7 81 9 15 NE - 41 1.4 -14.9
02/23/17 13:00 9.3 78 12 18 NE - 47 1.4 67.1
02/23/17 12:00 13.3 62 7 17 E - 80 1.4 67.5
02/23/17 11:00 9.0 81 10 18 N - 341 -0.3 -14.3
02/23/17 10:00 7.8 83 12 21 NE - 54 1.4 -13.9
02/23/17 09:00 7.6 84 14 20 NE - 60 1.4 -13.8
02/23/17 08:00 7.2 84 12 20 NE - 34 0.6 -13.8
02/23/17 07:00 7.4 85 15 20 N - 5 -0.0 -13.9
02/23/17 06:00 7.9 85 13 20 E - 69 0.0 66.5
02/23/17 05:00 7.9 85 14 19 NE - 54 -0.0 -13.9
02/23/17 04:00 8.0 86 11 17 NE - 43 0.5 -13.8
02/23/17 03:00 8.0 85 12 16 NE - 46 -0.0 -13.8
02/23/17 02:00 8.0 84 12 17 NE - 46 0.0 -13.8
02/23/17 01:00 8.3 83 8 15 NE - 44 0.0 -13.9
02/23/17 00:00 8.5 84 12 18 E - 71 0.3 -13.9
02/22/17 23:00 9.1 86 12 19 E - 69 0.1 -13.9
02/22/17 22:00 9.1 85 10 14 NE - 49 0.6 -13.9
.